Главная страница
METAR-TAF:

METAR-TAF

Аэропорты :

Бингемтон, Нью-Йорк, США

широта: 42-12-28N, долгота: 075-58-53W, высота над уровнем моря: 496 м

Текущие метеонаблюдения

Эта сводка был подготовлена 18 минут назад, в 15:53 UTC
Ветер 10 Узел от западный-юго-западный
Температура 2°C
Влажность 60%
Давление 1020 hPa
Видимость: 16.1 км
ясное небо

METAR: KBGM 151553Z 25010KT 10SM CLR 02/M05 A3013 RMK AO2 SLP220 T00171050

Время: 11:11 (16:11 UTC)

Прогноз

Эта сводка был подготовлена 4 часа и 44 минут назад, в 11:27 UTC
Прогноз действительный с 15-го 11 UTC до 16-го 12 UTC
Ветер 6 Узел от юго-западный
Видимость: 10 км
ясное небо
С 15-го 2000 UTC
Ветер 9 Узел от западный
Видимость: 10 км
Рассеянная облачность на высоте 2500 фута
С 16-го 0800 UTC
Ветер 10 Узел от северный
Видимость: 10 км
ясное небо

TAF: KBGM 151127Z 1511/1612 23006KT P6SM SKC FM152000 28009KT P6SM BKN025 FM160800 01010KT P6SM SKC

Метеонаблюдения и прогнозы для более 4000 аэропортов (сводки METAR и TAF).

Имеющиеся станции представлены на карте желтыми и красными точками.

Чтобы увидеть название станции, наведите на нее мышь.

Затем щелкните, чтобы увидеть метеонаблюдения и метеопрогнозы.

Управление картой: чтобы увеличить масштаб, щелкните зеленые кнопки с черным крестиком; чтобы уменьшить масштаб, щелкните зеленую кнопку с тире; для просмотра соседних карт щелкайте зеленые стрелки.


METAR-TAF: